createdAt,value
2022-08-24T00:00:31.788Z,41.48
2022-08-24T00:02:59.669Z,41.56
2022-08-24T00:05:27.442Z,41.66
2022-08-24T00:07:55.207Z,41.61
2022-08-24T00:10:24.267Z,41.81
2022-08-24T00:12:52.285Z,41.79
2022-08-24T00:15:20.623Z,41.81
2022-08-24T00:17:48.307Z,41.83
2022-08-24T00:20:16.027Z,41.82
2022-08-24T00:22:43.722Z,41.80
2022-08-24T00:25:11.961Z,41.79
2022-08-24T00:27:41.188Z,41.73
2022-08-24T00:30:10.674Z,41.85
2022-08-24T00:32:38.727Z,41.87
2022-08-24T00:35:07.481Z,41.80
2022-08-24T00:37:35.232Z,41.87
2022-08-24T00:40:03.137Z,41.85
2022-08-24T00:42:30.851Z,42.00
2022-08-24T00:44:59.952Z,42.00
2022-08-24T00:47:29.168Z,41.77
2022-08-24T00:49:59.307Z,41.91
2022-08-24T00:52:28.995Z,41.98
2022-08-24T00:54:57.965Z,41.93
2022-08-24T00:57:27.427Z,41.78
2022-08-24T00:59:56.804Z,42.17
2022-08-24T01:02:27.037Z,42.05
2022-08-24T01:04:57.328Z,42.11
2022-08-24T01:07:25.145Z,42.15
2022-08-24T01:09:53.117Z,42.04
2022-08-24T01:12:20.822Z,42.04
2022-08-24T01:14:48.544Z,42.18
2022-08-24T01:17:37.848Z,42.33
2022-08-24T01:20:09.784Z,42.24
2022-08-24T01:22:56.386Z,42.26
2022-08-24T01:25:26.642Z,42.21
2022-08-24T01:30:16.104Z,42.31
2022-08-24T01:32:53.720Z,42.29
2022-08-24T01:35:21.673Z,42.24
2022-08-24T01:37:49.417Z,42.22
2022-08-24T01:40:17.211Z,42.37
2022-08-24T01:42:50.047Z,42.20
2022-08-24T01:45:17.810Z,42.34
2022-08-24T01:47:45.508Z,42.34
2022-08-24T01:50:13.414Z,42.38
2022-08-24T01:53:03.806Z,42.64
2022-08-24T01:55:29.681Z,42.45
2022-08-24T01:57:59.110Z,42.51
2022-08-24T02:00:26.880Z,42.40
2022-08-24T02:02:56.545Z,42.42
2022-08-24T02:05:24.641Z,42.48
2022-08-24T02:07:52.374Z,42.40
2022-08-24T02:10:20.159Z,42.52
2022-08-24T02:12:57.705Z,42.64
2022-08-24T02:15:28.423Z,42.45
2022-08-24T02:17:56.264Z,42.56
2022-08-24T02:20:24.064Z,42.56
2022-08-24T02:22:52.065Z,42.41
2022-08-24T02:25:19.927Z,42.76
2022-08-24T02:27:47.610Z,42.50
2022-08-24T02:30:15.655Z,42.63
2022-08-24T02:32:44.775Z,42.59
2022-08-24T02:35:12.616Z,42.64
2022-08-24T02:37:43.641Z,42.54
2022-08-24T02:40:12.557Z,42.70
2022-08-24T02:42:40.536Z,42.78
2022-08-24T02:45:09.240Z,42.86
2022-08-24T02:47:39.069Z,42.89
2022-08-24T02:50:09.466Z,42.63
2022-08-24T02:52:37.459Z,42.71
2022-08-24T02:55:05.881Z,42.79
2022-08-24T02:57:33.582Z,42.75
2022-08-24T03:00:01.466Z,42.89
2022-08-24T03:02:29.192Z,42.88
2022-08-24T03:04:56.927Z,42.76
2022-08-24T03:07:25.967Z,42.91
2022-08-24T03:09:53.704Z,43.12
2022-08-24T03:12:21.388Z,43.22
2022-08-24T03:14:49.101Z,43.30
2022-08-24T03:17:16.787Z,42.89
2022-08-24T03:19:44.491Z,42.88
2022-08-24T03:22:13.310Z,42.94
2022-08-24T03:24:42.384Z,42.92
2022-08-24T03:27:13.544Z,42.93
2022-08-24T03:29:41.349Z,43.14
2022-08-24T03:32:09.166Z,43.12
2022-08-24T03:34:37.902Z,43.04
2022-08-24T03:37:05.710Z,42.99
2022-08-24T03:39:33.416Z,43.21
2022-08-24T03:42:02.459Z,43.23
2022-08-24T03:44:30.171Z,43.12
2022-08-24T03:46:57.883Z,43.11
2022-08-24T03:49:25.603Z,43.12
2022-08-24T03:51:53.299Z,43.09
2022-08-24T03:54:21.252Z,43.09
2022-08-24T03:56:49.199Z,43.16
2022-08-24T03:59:20.071Z,43.17
2022-08-24T04:01:47.937Z,43.34
2022-08-24T04:04:15.655Z,43.25
2022-08-24T04:06:44.594Z,43.38
2022-08-24T04:09:12.784Z,43.41
2022-08-24T04:11:41.529Z,43.43
2022-08-24T04:14:20.257Z,43.58
2022-08-24T04:16:57.656Z,43.62
2022-08-24T04:19:25.741Z,43.26
2022-08-24T04:21:53.437Z,43.35
2022-08-24T04:24:21.460Z,43.58
2022-08-24T04:26:49.161Z,43.33
2022-08-24T04:29:19.426Z,43.54
2022-08-24T04:31:47.555Z,43.77
2022-08-24T04:34:17.491Z,43.62
2022-08-24T04:36:45.849Z,43.39
2022-08-24T04:39:13.580Z,43.42
2022-08-24T04:41:41.990Z,43.53
2022-08-24T04:44:09.704Z,43.79
2022-08-24T04:46:37.397Z,43.59
2022-08-24T04:49:05.118Z,43.64
2022-08-24T04:51:36.581Z,43.39
2022-08-24T04:54:04.961Z,44.24
2022-08-24T04:56:32.639Z,43.77
2022-08-24T04:59:00.391Z,43.98
2022-08-24T05:01:28.992Z,44.21
2022-08-24T05:03:56.710Z,44.21
2022-08-24T05:06:25.390Z,44.23
2022-08-24T05:08:54.486Z,44.25
2022-08-24T05:11:22.636Z,43.97
2022-08-24T05:13:52.422Z,44.30
2022-08-24T05:16:20.296Z,44.01
2022-08-24T05:18:48.246Z,44.00
2022-08-24T05:21:18.704Z,44.19
2022-08-24T05:23:46.694Z,44.40
2022-08-24T05:26:16.794Z,44.14
2022-08-24T05:28:44.629Z,44.23
2022-08-24T05:31:14.196Z,44.33
2022-08-24T05:33:41.956Z,44.49
2022-08-24T05:36:16.739Z,44.55
2022-08-24T05:38:44.527Z,44.66
2022-08-24T05:41:12.303Z,44.49
2022-08-24T05:43:41.453Z,44.57
2022-08-24T05:46:09.240Z,44.61
2022-08-24T05:48:38.198Z,44.56
2022-08-24T05:51:06.306Z,44.64
2022-08-24T05:53:34.020Z,44.51
2022-08-24T05:56:04.049Z,44.25
2022-08-24T05:58:31.564Z,44.52
2022-08-24T06:01:00.964Z,44.42
2022-08-24T06:03:28.649Z,44.34
2022-08-24T06:05:56.471Z,44.33
2022-08-24T06:08:24.163Z,44.17
2022-08-24T06:10:51.888Z,44.40
2022-08-24T06:13:19.568Z,44.07
2022-08-24T06:16:04.794Z,44.19
2022-08-24T06:18:36.336Z,44.05
2022-08-24T06:21:07.793Z,44.06
2022-08-24T06:23:35.611Z,44.17
2022-08-24T06:26:23.255Z,43.95
2022-08-24T06:28:52.107Z,44.01
2022-08-24T06:31:19.997Z,44.13
2022-08-24T06:33:49.099Z,44.02
2022-08-24T06:36:16.818Z,44.04
2022-08-24T06:38:48.269Z,43.87
2022-08-24T06:41:16.029Z,44.25
2022-08-24T06:43:43.936Z,44.15
2022-08-24T06:46:11.721Z,44.35
2022-08-24T06:48:39.431Z,44.29
2022-08-24T06:51:11.411Z,44.25
2022-08-24T06:53:39.323Z,44.54
2022-08-24T06:56:07.845Z,44.52
2022-08-24T06:58:35.739Z,44.51
2022-08-24T07:01:09.400Z,44.91
2022-08-24T07:03:37.090Z,44.76
2022-08-24T07:06:05.230Z,45.02
2022-08-24T07:08:34.273Z,44.65
2022-08-24T07:11:02.484Z,44.79
2022-08-24T07:13:31.149Z,44.68
2022-08-24T07:15:59.058Z,44.82
2022-08-24T07:18:26.951Z,44.80
2022-08-24T07:20:54.658Z,44.62
2022-08-24T07:23:22.403Z,44.74
2022-08-24T07:26:21.820Z,44.63
2022-08-24T07:28:50.128Z,44.34
2022-08-24T07:31:17.873Z,44.46
2022-08-24T07:33:45.881Z,44.49
2022-08-24T07:36:22.090Z,44.51
2022-08-24T07:38:52.183Z,44.18
2022-08-24T07:41:46.897Z,44.11
2022-08-24T07:44:09.520Z,43.97
2022-08-24T07:46:37.827Z,44.15
2022-08-24T07:49:12.484Z,44.11
2022-08-24T07:51:48.400Z,43.88
2022-08-24T07:54:16.268Z,43.86
2022-08-24T07:56:45.328Z,43.71
2022-08-24T07:59:13.573Z,43.54
2022-08-24T08:01:41.735Z,42.96
2022-08-24T08:04:09.618Z,42.78
2022-08-24T08:06:37.349Z,41.99
2022-08-24T08:09:05.440Z,42.12
2022-08-24T08:11:33.419Z,42.19
2022-08-24T08:14:02.555Z,42.35
2022-08-24T08:16:30.405Z,42.01
2022-08-24T08:19:09.830Z,41.96
2022-08-24T08:22:00.190Z,41.75
2022-08-24T08:24:27.716Z,41.71
2022-08-24T08:26:55.446Z,41.72
2022-08-24T08:29:25.093Z,41.42
2022-08-24T08:31:53.119Z,41.08
2022-08-24T08:34:21.114Z,40.70
2022-08-24T08:36:49.472Z,40.74
2022-08-24T08:39:18.589Z,40.18
2022-08-24T08:41:58.708Z,40.23
2022-08-24T08:44:36.254Z,40.35
2022-08-24T08:47:07.576Z,40.21
2022-08-24T08:49:43.987Z,39.94
2022-08-24T08:52:27.359Z,40.04
2022-08-24T08:55:01.159Z,40.52
2022-08-24T08:57:36.547Z,40.62
2022-08-24T09:00:15.791Z,40.65
2022-08-24T09:03:18.216Z,40.55
2022-08-24T09:05:58.786Z,40.57
2022-08-24T09:08:52.086Z,40.06
2022-08-24T09:11:22.976Z,39.43
2022-08-24T09:14:05.668Z,39.17
2022-08-24T09:16:43.386Z,39.24
2022-08-24T09:19:31.715Z,39.54
2022-08-24T09:22:07.439Z,39.42
2022-08-24T09:25:00.179Z,39.36
2022-08-24T09:27:35.407Z,39.12
2022-08-24T09:30:09.978Z,39.12
2022-08-24T09:32:56.103Z,39.03
2022-08-24T09:35:27.182Z,38.71
2022-08-24T09:38:00.620Z,38.74
2022-08-24T09:40:36.550Z,38.47
2022-08-24T09:43:22.632Z,38.51
2022-08-24T09:46:07.418Z,38.33
2022-08-24T09:48:58.751Z,38.02
2022-08-24T09:51:54.206Z,38.49
2022-08-24T09:54:45.236Z,38.52
2022-08-24T09:57:21.088Z,38.73
2022-08-24T09:59:59.465Z,38.48
2022-08-24T10:02:41.391Z,38.50
2022-08-24T10:05:14.650Z,37.13
2022-08-24T10:07:46.536Z,37.24
2022-08-24T10:10:23.252Z,37.21
2022-08-24T10:12:57.159Z,36.91
2022-08-24T10:15:29.187Z,37.05
2022-08-24T10:18:22.103Z,36.79
2022-08-24T10:20:58.464Z,37.20
2022-08-24T10:23:34.515Z,37.35
2022-08-24T10:26:04.287Z,37.22
2022-08-24T10:28:39.875Z,37.63
2022-08-24T10:31:12.511Z,37.74
2022-08-24T10:33:50.748Z,37.86
2022-08-24T10:36:36.716Z,37.80
2022-08-24T10:39:31.559Z,37.88
2022-08-24T10:42:37.350Z,38.20
2022-08-24T10:45:14.533Z,38.09
2022-08-24T10:47:45.763Z,38.30
2022-08-24T10:50:34.219Z,38.55
2022-08-24T10:53:22.048Z,37.85
2022-08-24T10:55:56.263Z,38.00
2022-08-24T10:58:46.044Z,37.50
2022-08-24T11:01:16.038Z,37.68
2022-08-24T11:03:52.418Z,37.54
2022-08-24T11:06:20.290Z,37.52
2022-08-24T11:08:57.247Z,37.51
2022-08-24T11:11:27.251Z,37.20
2022-08-24T11:13:58.998Z,36.90
2022-08-24T11:16:28.413Z,36.93
2022-08-24T11:18:56.784Z,36.84
2022-08-24T11:21:39.422Z,36.74
2022-08-24T11:24:11.583Z,36.92
2022-08-24T11:26:53.492Z,36.99
2022-08-24T11:29:23.153Z,36.95
2022-08-24T11:31:52.700Z,37.18
2022-08-24T11:34:21.913Z,36.97
2022-08-24T11:36:49.655Z,36.70
2022-08-24T11:39:21.779Z,36.61
2022-08-24T11:41:54.100Z,37.20
2022-08-24T11:44:27.980Z,36.62
2022-08-24T11:46:58.274Z,37.12
2022-08-24T11:49:28.861Z,36.73
2022-08-24T11:52:03.252Z,37.09
2022-08-24T11:54:34.701Z,36.89
2022-08-24T11:57:08.428Z,36.81
2022-08-24T11:59:41.743Z,36.08
2022-08-24T12:02:12.074Z,35.10
2022-08-24T12:04:47.633Z,35.96
2022-08-24T12:07:21.552Z,35.80
2022-08-24T12:10:05.826Z,36.49
2022-08-24T12:12:37.347Z,36.20
2022-08-24T12:15:07.035Z,36.50
2022-08-24T12:17:36.502Z,36.01
2022-08-24T12:20:06.207Z,36.17
2022-08-24T12:22:33.906Z,36.26
2022-08-24T12:25:25.871Z,35.97
2022-08-24T12:27:53.750Z,36.40
2022-08-24T12:30:21.542Z,36.42
2022-08-24T12:32:51.153Z,36.32
2022-08-24T12:35:20.216Z,36.82
2022-08-24T12:37:49.224Z,36.72
2022-08-24T12:40:24.664Z,36.62
2022-08-24T12:42:54.657Z,36.93
2022-08-24T12:45:23.160Z,36.87
2022-08-24T12:47:53.644Z,36.45
2022-08-24T12:50:25.631Z,36.29
2022-08-24T12:53:37.867Z,35.63
2022-08-24T12:56:18.746Z,35.56
2022-08-24T12:59:08.690Z,35.70
2022-08-24T13:01:38.075Z,36.16
2022-08-24T13:04:08.836Z,35.96
2022-08-24T13:06:42.588Z,35.84
2022-08-24T13:09:15.396Z,36.20
2022-08-24T13:11:44.495Z,35.95
2022-08-24T13:14:19.371Z,35.84
2022-08-24T13:16:52.983Z,35.71
2022-08-24T13:19:35.394Z,35.77
2022-08-24T13:22:35.463Z,35.01
2022-08-24T13:25:03.504Z,34.18
2022-08-24T13:28:03.968Z,33.31
2022-08-24T13:30:52.602Z,33.72
2022-08-24T13:33:26.184Z,33.55
2022-08-24T13:35:57.409Z,33.94
2022-08-24T13:38:42.803Z,34.60
2022-08-24T13:41:16.784Z,34.24
2022-08-24T13:43:45.692Z,34.38
2022-08-24T13:46:18.352Z,34.66
2022-08-24T13:48:50.384Z,34.86
2022-08-24T13:51:26.604Z,34.78
2022-08-24T13:54:20.038Z,34.80
2022-08-24T13:57:21.534Z,34.52
2022-08-24T14:00:17.947Z,34.19
2022-08-24T14:02:56.074Z,33.71
2022-08-24T14:05:28.216Z,33.35
2022-08-24T14:08:00.713Z,33.05
2022-08-24T14:10:37.248Z,33.70
2022-08-24T14:13:07.712Z,32.94
2022-08-24T14:15:50.424Z,32.69
2022-08-24T14:18:23.133Z,32.96
2022-08-24T14:20:57.223Z,33.59
2022-08-24T14:23:29.503Z,33.71
2022-08-24T14:26:30.233Z,33.23
2022-08-24T14:29:31.120Z,33.55
2022-08-24T14:32:34.833Z,33.76
2022-08-24T14:35:27.526Z,34.16
2022-08-24T14:38:12.587Z,34.21
2022-08-24T14:40:46.234Z,34.02
2022-08-24T14:43:28.546Z,34.14
2022-08-24T14:46:02.696Z,34.34
2022-08-24T14:48:35.860Z,34.40
2022-08-24T14:51:11.057Z,34.20
2022-08-24T14:53:57.338Z,34.60
2022-08-24T14:56:32.304Z,34.65
2022-08-24T14:59:03.119Z,34.42
2022-08-24T15:01:39.536Z,34.53
2022-08-24T15:04:30.765Z,34.85
2022-08-24T15:07:24.751Z,34.97
2022-08-24T15:09:53.123Z,34.84
2022-08-24T15:12:28.671Z,35.04
2022-08-24T15:15:00.195Z,35.02
2022-08-24T15:17:31.172Z,34.84
2022-08-24T15:20:03.353Z,34.45
2022-08-24T15:22:40.943Z,34.42
2022-08-24T15:25:14.732Z,34.84
2022-08-24T15:27:46.403Z,35.12
2022-08-24T15:30:22.287Z,34.67
2022-08-24T15:32:51.857Z,35.00
2022-08-24T15:35:30.237Z,34.79
2022-08-24T15:37:59.375Z,35.00
2022-08-24T15:40:29.747Z,34.72
2022-08-24T15:42:58.687Z,34.83
2022-08-24T15:45:26.412Z,34.97
2022-08-24T15:47:54.143Z,35.01
2022-08-24T15:50:23.852Z,35.10
2022-08-24T15:52:52.886Z,35.00
2022-08-24T15:55:41.479Z,35.20
2022-08-24T15:58:28.620Z,35.08
2022-08-24T16:01:18.276Z,35.14
2022-08-24T16:03:47.373Z,34.73
2022-08-24T16:06:21.363Z,34.80
2022-08-24T16:09:00.403Z,34.61
2022-08-24T16:11:32.151Z,34.96
2022-08-24T16:13:59.968Z,35.30
2022-08-24T16:16:39.053Z,34.86
2022-08-24T16:19:08.640Z,34.57
2022-08-24T16:21:38.760Z,34.94
2022-08-24T16:24:08.431Z,34.82
2022-08-24T16:31:51.849Z,34.62
2022-08-24T16:34:23.446Z,34.82
2022-08-24T16:36:51.167Z,34.88
2022-08-24T16:39:18.871Z,34.69
2022-08-24T16:41:47.119Z,34.86
2022-08-24T16:44:15.018Z,34.47
2022-08-24T16:46:42.748Z,34.82
2022-08-24T16:49:17.243Z,34.76
2022-08-24T16:51:45.506Z,34.73
2022-08-24T16:54:13.459Z,34.39
2022-08-24T16:56:42.609Z,34.82
2022-08-24T16:59:10.562Z,34.54
2022-08-24T17:01:38.397Z,35.00
2022-08-24T17:04:06.136Z,34.78
2022-08-24T17:06:35.196Z,34.77
2022-08-24T17:09:02.917Z,34.81
2022-08-24T17:11:30.992Z,34.88
2022-08-24T17:13:58.679Z,34.68
2022-08-24T17:16:26.458Z,34.87
2022-08-24T17:18:54.179Z,34.85
2022-08-24T17:21:23.326Z,34.79
2022-08-24T17:23:52.363Z,34.24
2022-08-24T17:26:21.767Z,34.01
2022-08-24T17:28:50.201Z,34.14
2022-08-24T17:31:17.969Z,34.03
2022-08-24T17:33:45.710Z,34.00
2022-08-24T17:36:15.712Z,34.49
2022-08-24T17:38:46.180Z,34.48
2022-08-24T17:41:15.555Z,34.06
2022-08-24T17:43:46.929Z,34.36
2022-08-24T17:46:14.998Z,34.55
2022-08-24T17:48:43.402Z,34.56
2022-08-24T17:51:11.142Z,34.36
2022-08-24T17:53:38.837Z,34.35
2022-08-24T17:56:07.834Z,34.84
2022-08-24T17:58:57.387Z,34.48
2022-08-24T18:01:25.238Z,34.88
2022-08-24T18:03:53.062Z,34.97
2022-08-24T18:06:20.932Z,34.52
2022-08-24T18:08:48.660Z,34.97
2022-08-24T18:11:16.378Z,34.72
2022-08-24T18:13:45.416Z,35.03
2022-08-24T18:16:16.247Z,34.96
2022-08-24T18:18:44.025Z,34.92
2022-08-24T18:21:11.743Z,34.90
2022-08-24T18:23:43.576Z,34.44
2022-08-24T18:26:11.447Z,35.04
2022-08-24T18:28:39.171Z,35.15
2022-08-24T18:31:11.621Z,35.09
2022-08-24T18:33:43.117Z,35.37
2022-08-24T18:36:12.096Z,35.47
2022-08-24T18:38:40.441Z,35.62
2022-08-24T18:41:08.155Z,35.76
2022-08-24T18:43:36.018Z,35.31
2022-08-24T18:46:04.850Z,35.78
2022-08-24T18:48:33.941Z,35.74
2022-08-24T18:51:02.581Z,36.00
2022-08-24T18:53:30.329Z,35.94
2022-08-24T18:56:00.622Z,35.96
2022-08-24T18:58:32.835Z,35.84
2022-08-24T19:01:00.634Z,36.24
2022-08-24T19:03:28.480Z,36.42
2022-08-24T19:05:57.548Z,36.11
2022-08-24T19:08:25.273Z,36.15
2022-08-24T19:10:53.017Z,36.11
2022-08-24T19:13:20.740Z,36.51
2022-08-24T19:15:48.646Z,36.30
2022-08-24T19:18:16.778Z,36.59
2022-08-24T19:20:48.298Z,36.42
2022-08-24T19:23:21.083Z,36.44
2022-08-24T19:25:48.885Z,36.46
2022-08-24T19:28:16.647Z,36.44
2022-08-24T19:30:44.637Z,36.96
2022-08-24T19:33:22.220Z,36.83
2022-08-24T19:35:50.193Z,36.96
2022-08-24T19:38:24.642Z,36.71
2022-08-24T19:40:53.419Z,36.74
2022-08-24T19:43:21.115Z,36.81
2022-08-24T19:46:02.362Z,37.10
2022-08-24T19:48:30.151Z,37.16
2022-08-24T19:50:59.868Z,37.27
2022-08-24T19:53:28.711Z,37.32
2022-08-24T19:55:56.452Z,37.53
2022-08-24T19:58:25.154Z,37.07
2022-08-24T20:00:56.842Z,37.15
2022-08-24T20:03:24.599Z,37.48
2022-08-24T20:05:52.336Z,37.24
2022-08-24T20:08:20.265Z,37.46
2022-08-24T20:10:49.803Z,37.86
2022-08-24T20:13:17.662Z,37.74
2022-08-24T20:15:46.284Z,37.54
2022-08-24T20:18:14.712Z,37.38
2022-08-24T20:20:42.503Z,37.77
2022-08-24T20:23:10.199Z,37.69
2022-08-24T20:25:38.271Z,37.77
2022-08-24T20:28:28.094Z,38.12
2022-08-24T20:30:55.611Z,38.01
2022-08-24T20:33:23.775Z,37.84
2022-08-24T20:35:51.662Z,37.88
2022-08-24T20:38:20.205Z,38.21
2022-08-24T20:40:48.447Z,37.93
2022-08-24T20:43:18.071Z,38.27
2022-08-24T20:45:45.802Z,38.07
2022-08-24T20:48:13.897Z,38.35
2022-08-24T20:50:43.459Z,38.26
2022-08-24T20:53:11.487Z,38.50
2022-08-24T20:55:39.542Z,38.34
2022-08-24T20:58:07.251Z,38.31
2022-08-24T21:00:36.826Z,38.54
2022-08-24T21:03:04.850Z,38.33
2022-08-24T21:05:32.763Z,38.61
2022-08-24T21:08:00.460Z,38.26
2022-08-24T21:10:28.245Z,38.56
2022-08-24T21:12:56.051Z,38.39
2022-08-24T21:15:23.781Z,38.50
2022-08-24T21:17:52.875Z,38.36
2022-08-24T21:20:20.702Z,38.70
2022-08-24T21:22:48.663Z,38.70
2022-08-24T21:25:16.975Z,38.63
2022-08-24T21:27:45.552Z,38.69
2022-08-24T21:30:15.311Z,39.00
2022-08-24T21:33:00.561Z,38.68
2022-08-24T21:35:29.682Z,38.68
2022-08-24T21:37:59.131Z,38.93
2022-08-24T21:40:27.198Z,38.82
2022-08-24T21:42:55.001Z,38.67
2022-08-24T21:45:22.703Z,38.58
2022-08-24T21:47:50.426Z,38.90
2022-08-24T21:50:19.622Z,38.71
2022-08-24T21:52:54.654Z,38.88
2022-08-24T21:55:22.933Z,38.88
2022-08-24T21:57:50.908Z,39.00
2022-08-24T22:00:19.387Z,38.57
2022-08-24T22:02:47.490Z,38.72
2022-08-24T22:05:15.309Z,38.90
2022-08-24T22:07:43.101Z,39.18
2022-08-24T22:10:12.946Z,38.83
2022-08-24T22:12:40.484Z,39.01
2022-08-24T22:15:09.063Z,38.78
2022-08-24T22:17:36.851Z,39.11
2022-08-24T22:20:05.052Z,39.01
2022-08-24T22:22:32.948Z,39.10
2022-08-24T22:25:00.892Z,39.15
2022-08-24T22:27:29.970Z,38.89
2022-08-24T22:29:58.777Z,38.75
2022-08-24T22:32:26.626Z,38.97
2022-08-24T22:34:54.324Z,39.02
2022-08-24T22:37:22.043Z,39.09
2022-08-24T22:39:49.782Z,39.25
2022-08-24T22:42:17.660Z,39.01
2022-08-24T22:44:46.771Z,39.03
2022-08-24T22:47:15.163Z,38.93
2022-08-24T22:49:44.349Z,38.97
2022-08-24T22:52:13.276Z,39.15
2022-08-24T22:54:41.120Z,38.98
2022-08-24T22:57:08.938Z,38.99
2022-08-24T22:59:38.186Z,38.88
2022-08-24T23:02:08.616Z,39.04
2022-08-24T23:04:38.335Z,38.97
2022-08-24T23:07:06.550Z,39.01
2022-08-24T23:09:44.111Z,39.18
2022-08-24T23:12:14.204Z,39.04
2022-08-24T23:14:43.495Z,39.49
2022-08-24T23:17:12.598Z,39.25
2022-08-24T23:20:09.265Z,39.46
2022-08-24T23:22:38.365Z,39.39
2022-08-24T23:25:06.642Z,39.32
2022-08-24T23:27:38.427Z,39.28
2022-08-24T23:30:08.204Z,39.25
2022-08-24T23:32:37.278Z,39.45
2022-08-24T23:35:05.678Z,39.17
2022-08-24T23:37:33.436Z,39.30
2022-08-24T23:40:01.350Z,39.24
2022-08-24T23:42:29.206Z,39.45
2022-08-24T23:44:57.443Z,39.33
2022-08-24T23:47:25.168Z,39.36
2022-08-24T23:49:55.506Z,39.31
2022-08-24T23:52:27.234Z,39.43
2022-08-24T23:55:03.557Z,39.30
2022-08-24T23:57:44.360Z,39.44
